Time;durP1;ratioP1;P1;durP2;ratioP2;P2;SDS_P1;SDS_P2;PMS_P1;PMS_P2;Temp;Humidity;BMP_temperature;BMP_pressure;BME280_temperature;BME280_humidity;BME280_pressure;Samples;Min_cycle;Max_cycle;Signal;HPM_P1;HPM_P2
2023/06/09 00:01:12;;;;;;;;;;;;;;;20.45;50.99;99331.88;5112626;28;20695;-79
2023/06/09 00:03:37;;;;;;;;;;;;;;;20.40;52.30;99326.44;5112405;28;19919;-78
2023/06/09 00:06:02;;;;;;;;;;;;;;;20.35;51.52;99339.75;5113257;28;19994;-77
2023/06/09 00:08:29;;;;;;;;;;;;;;;20.23;51.59;99324.59;5116862;28;19916;-77
2023/06/09 00:10:54;;;;;;;;;;;;;;;20.15;52.62;99330.38;5115170;28;20319;-78
2023/06/09 00:13:20;;;;;;;;;;;;;;;20.10;51.06;99324.13;5116469;28;19912;-78
2023/06/09 00:15:45;;;;;;;;;;;;;;;20.02;52.73;99324.50;5116510;28;19919;-77
2023/06/09 00:18:15;;;;;;;;;;;;;;;19.94;52.84;99328.41;5115270;28;20006;-78
2023/06/09 00:20:41;;;;;;;;;;;;;;;19.89;52.46;99322.97;5115382;28;19908;-78
2023/06/09 00:23:07;;;;;;;;;;;;;;;19.90;51.26;99322.72;5115262;28;19912;-79
2023/06/09 00:25:33;;;;;;;;;;;;;;;19.87;53.35;99330.44;5116065;28;19998;-77
2023/06/09 00:27:58;;;;;;;;;;;;;;;19.82;52.04;99319.63;5115821;28;20006;-77
2023/06/09 00:30:23;;;;;;;;;;;;;;;19.76;53.83;99312.56;5115830;28;19965;-78
2023/06/09 00:32:49;;;;;;;;;;;;;;;19.72;53.77;99314.94;5115919;28;20304;-77
2023/06/09 00:35:14;;;;;;;;;;;;;;;19.65;53.23;99312.41;5116244;28;19916;-78
2023/06/09 00:37:39;;;;;;;;;;;;;;;19.61;53.16;99311.25;5116105;28;20024;-78
2023/06/09 00:40:05;;;;;;;;;;;;;;;19.65;51.89;99315.09;5115998;28;19951;-77
2023/06/09 00:42:31;;;;;;;;;;;;;;;19.61;52.28;99313.13;5116266;28;19912;-78
2023/06/09 00:44:56;;;;;;;;;;;;;;;19.51;53.71;99324.44;5116606;28;20353;-79
2023/06/09 00:47:22;;;;;;;;;;;;;;;19.45;53.94;99325.41;5116011;28;19916;-78
2023/06/09 00:49:47;;;;;;;;;;;;;;;19.40;53.24;99319.16;5114691;28;19912;-79
2023/06/09 00:52:13;;;;;;;;;;;;;;;19.37;54.53;99317.78;5115845;28;19925;-78
2023/06/09 00:54:38;;;;;;;;;;;;;;;19.36;53.89;99316.16;5114344;28;20392;-79
2023/06/09 00:57:05;;;;;;;;;;;;;;;19.33;52.68;99320.13;5115484;28;19916;-79
2023/06/09 00:59:33;;;;;;;;;;;;;;;19.28;54.60;99320.00;5115585;28;19943;-78
2023/06/09 01:01:58;;;;;;;;;;;;;;;19.24;54.74;99310.81;5116011;28;19919;-78
2023/06/09 01:04:23;;;;;;;;;;;;;;;19.26;53.77;99315.94;5114136;28;19937;-78
2023/06/09 01:07:08;;;;;;;;;;;;;;;19.27;53.55;99317.56;5114159;28;19912;-78
2023/06/09 01:09:35;;;;;;;;;;;;;;;19.32;54.33;99320.34;5122755;28;19932;-79
2023/06/09 01:12:12;;;;;;;;;;;;;;;19.33;54.30;99328.16;5117666;28;19912;-78
2023/06/09 01:14:45;;;;;;;;;;;;;;;19.32;53.43;99326.53;5115677;28;19918;-78
2023/06/09 01:17:13;;;;;;;;;;;;;;;19.29;53.00;99326.97;5114102;28;19951;-78
2023/06/09 01:19:41;;;;;;;;;;;;;;;19.20;53.13;99324.94;5115419;28;19980;-79
2023/06/09 01:22:25;;;;;;;;;;;;;;;19.12;54.39;99322.63;5115131;28;20063;-78
2023/06/09 01:25:17;;;;;;;;;;;;;;;19.10;54.41;99322.88;5115308;28;19912;-78
2023/06/09 01:27:45;;;;;;;;;;;;;;;19.12;54.63;99320.78;5114899;28;19983;-78
2023/06/09 01:30:11;;;;;;;;;;;;;;;19.03;56.49;99317.66;5114956;28;19916;-78
2023/06/09 01:32:38;;;;;;;;;;;;;;;18.85;55.90;99312.50;5114924;28;20342;-78
2023/06/09 01:35:04;;;;;;;;;;;;;;;18.83;56.04;99313.78;5114580;28;20049;-79
2023/06/09 01:37:30;;;;;;;;;;;;;;;18.89;55.38;99308.28;5114723;28;19998;-78
2023/06/09 01:39:55;;;;;;;;;;;;;;;18.93;55.90;99312.13;5113437;28;19911;-78
2023/06/09 01:42:20;;;;;;;;;;;;;;;18.91;54.43;99306.19;5113590;28;19998;-78
2023/06/09 01:44:46;;;;;;;;;;;;;;;18.87;55.95;99299.69;5114705;28;19912;-78
2023/06/09 01:47:12;;;;;;;;;;;;;;;18.87;55.57;99301.56;5114421;28;19999;-78
2023/06/09 01:49:42;;;;;;;;;;;;;;;18.85;54.37;99300.97;5113507;28;19918;-78
2023/06/09 01:52:20;;;;;;;;;;;;;;;18.83;55.00;99319.13;5113361;28;19934;-78
2023/06/09 01:54:53;;;;;;;;;;;;;;;18.85;54.84;99317.84;5113288;28;20376;-79
2023/06/09 01:57:19;;;;;;;;;;;;;;;18.87;55.09;99315.75;5114800;28;19920;-78
2023/06/09 01:59:53;;;;;;;;;;;;;;;18.89;54.05;99316.31;5114790;28;20380;-79
2023/06/09 02:02:19;;;;;;;;;;;;;;;18.85;55.41;99312.50;5114834;28;20619;-78
2023/06/09 02:04:45;;;;;;;;;;;;;;;18.83;55.08;99311.91;5114678;28;19947;-79
2023/06/09 02:07:16;;;;;;;;;;;;;;;18.89;55.88;99310.16;5114513;28;19912;-78
2023/06/09 02:09:42;;;;;;;;;;;;;;;18.88;55.53;99314.69;5114192;28;19995;-78
2023/06/09 02:12:08;;;;;;;;;;;;;;;18.85;56.94;99317.03;5114225;28;19912;-78
2023/06/09 02:14:33;;;;;;;;;;;;;;;18.84;56.52;99326.91;5114450;28;19918;-78
2023/06/09 02:17:02;;;;;;;;;;;;;;;18.84;56.14;99326.91;5114312;28;20472;-79
2023/06/09 02:19:28;;;;;;;;;;;;;;;18.84;55.24;99329.59;5112976;28;19919;-78
2023/06/09 02:21:54;;;;;;;;;;;;;;;18.84;56.82;99329.59;5114298;28;19912;-78
2023/06/09 02:24:19;;;;;;;;;;;;;;;18.81;54.70;99330.06;5112744;28;19935;-79
2023/06/09 02:26:44;;;;;;;;;;;;;;;18.75;56.82;99331.00;5113791;28;19919;-78
2023/06/09 02:29:10;;;;;;;;;;;;;;;18.71;56.01;99327.19;5113097;28;20305;-78
2023/06/09 02:31:36;;;;;;;;;;;;;;;18.76;56.31;99324.63;5113537;28;19994;-78
2023/06/09 02:34:01;;;;;;;;;;;;;;;18.80;55.09;99323.09;5113451;28;19911;-77
2023/06/09 02:36:27;;;;;;;;;;;;;;;18.79;54.95;99331.34;5113509;28;19916;-79
2023/06/09 02:38:52;;;;;;;;;;;;;;;18.76;55.83;99331.81;5113624;28;20361;-79
2023/06/09 02:41:17;;;;;;;;;;;;;;;18.72;55.65;99334.16;5113697;28;19922;-78
2023/06/09 02:43:42;;;;;;;;;;;;;;;18.69;55.38;99338.13;5112466;28;19912;-79
2023/06/09 02:46:09;;;;;;;;;;;;;;;18.66;55.73;99335.91;5113600;28;20307;-78
2023/06/09 02:48:35;;;;;;;;;;;;;;;18.69;55.16;99338.13;5113571;28;19912;-79
2023/06/09 02:51:00;;;;;;;;;;;;;;;18.67;56.85;99340.22;5113620;28;20281;-76
2023/06/09 02:53:28;;;;;;;;;;;;;;;18.64;57.06;99335.34;5112405;28;19923;-79
2023/06/09 02:55:53;;;;;;;;;;;;;;;18.62;56.19;99332.09;5113576;28;19916;-79
2023/06/09 02:58:19;;;;;;;;;;;;;;;18.68;55.39;99344.50;5112401;28;19923;-77
2023/06/09 03:00:44;;;;;;;;;;;;;;;18.71;55.65;99351.25;5113432;28;19998;-78
2023/06/09 03:03:10;;;;;;;;;;;;;;;18.68;55.48;99341.84;5113507;28;19919;-78
2023/06/09 03:05:40;;;;;;;;;;;;;;;18.62;55.36;99340.09;5112123;28;19919;-78
2023/06/09 03:08:06;;;;;;;;;;;;;;;18.57;54.71;99344.47;5111971;28;19912;-78
2023/06/09 03:10:31;;;;;;;;;;;;;;;18.53;55.67;99352.16;5113064;28;20006;-78
2023/06/09 03:12:56;;;;;;;;;;;;;;;18.50;55.21;99355.28;5111923;28;19962;-78
2023/06/09 03:15:21;;;;;;;;;;;;;;;18.46;55.41;99358.66;5113050;28;19919;-78
2023/06/09 03:17:47;;;;;;;;;;;;;;;18.45;54.78;99360.53;5113193;28;20402;-78
2023/06/09 03:20:12;;;;;;;;;;;;;;;18.42;54.94;99352.97;5113491;28;19951;-78
2023/06/09 03:22:38;;;;;;;;;;;;;;;18.36;56.79;99354.72;5113190;28;20003;-79
2023/06/09 03:25:04;;;;;;;;;;;;;;;18.32;55.80;99358.09;5113024;28;19912;-78
2023/06/09 03:27:29;;;;;;;;;;;;;;;18.30;56.18;99352.16;5112876;28;19904;-79
2023/06/09 03:29:54;;;;;;;;;;;;;;;18.28;55.55;99357.75;5112974;28;19912;-79
2023/06/09 03:32:20;;;;;;;;;;;;;;;18.23;55.90;99348.78;5112792;28;20010;-78
2023/06/09 03:34:45;;;;;;;;;;;;;;;18.23;55.89;99349.59;5112836;28;19911;-79
2023/06/09 03:37:13;;;;;;;;;;;;;;;18.21;55.16;99351.69;5112865;28;19916;-79
2023/06/09 03:39:38;;;;;;;;;;;;;;;18.21;55.73;99354.38;5112500;28;20040;-78
2023/06/09 03:42:03;;;;;;;;;;;;;;;18.22;56.89;99360.53;5112615;28;19957;-79
2023/06/09 03:44:29;;;;;;;;;;;;;;;18.31;55.95;99351.13;5112813;28;19911;-79
2023/06/09 03:46:54;;;;;;;;;;;;;;;18.38;56.08;99355.28;5112798;28;19911;-78
2023/06/09 03:49:19;;;;;;;;;;;;;;;18.38;55.68;99352.63;5112931;28;20438;-78
2023/06/09 03:51:45;;;;;;;;;;;;;;;18.42;55.58;99358.31;5112596;28;19911;-79
2023/06/09 03:54:10;;;;;;;;;;;;;;;18.42;55.57;99355.66;5112573;28;20362;-78
2023/06/09 03:56:35;;;;;;;;;;;;;;;18.42;55.45;99363.66;5111195;28;20417;-78
2023/06/09 03:59:00;;;;;;;;;;;;;;;18.37;55.51;99358.19;5112840;28;20002;-78
2023/06/09 04:01:26;;;;;;;;;;;;;;;18.34;55.22;99359.47;5112663;28;19912;-79
2023/06/09 04:03:51;;;;;;;;;;;;;;;18.39;57.42;99362.28;5113561;28;19968;-78
2023/06/09 04:06:16;;;;;;;;;;;;;;;18.38;55.71;99357.97;5124914;28;20003;-77
2023/06/09 04:08:44;;;;;;;;;;;;;;;18.43;56.37;99355.41;5119500;28;19911;-79
2023/06/09 04:11:09;;;;;;;;;;;;;;;18.46;57.16;99353.31;5112141;28;20377;-79
2023/06/09 04:13:34;;;;;;;;;;;;;;;18.52;57.38;99352.38;5110878;28;19918;-79
2023/06/09 04:16:00;;;;;;;;;;;;;;;18.54;55.90;99363.66;5111912;28;20285;-79
2023/06/09 04:18:26;;;;;;;;;;;;;;;18.59;56.23;99363.78;5111891;28;19912;-76
2023/06/09 04:20:52;;;;;;;;;;;;;;;18.66;56.34;99357.31;5112025;28;20376;-79
2023/06/09 04:23:17;;;;;;;;;;;;;;;18.69;55.74;99364.84;5111942;28;19961;-79
2023/06/09 04:25:42;;;;;;;;;;;;;;;18.73;56.47;99365.19;5112336;28;19912;-79
2023/06/09 04:28:08;;;;;;;;;;;;;;;18.76;56.70;99363.91;5110279;28;19920;-78
2023/06/09 04:30:34;;;;;;;;;;;;;;;18.83;55.44;99372.63;5112053;28;19947;-78
2023/06/09 04:32:59;;;;;;;;;;;;;;;18.91;55.66;99367.72;5110599;28;19919;-79
2023/06/09 04:35:24;;;;;;;;;;;;;;;19.00;55.90;99370.84;5111723;28;19915;-78
2023/06/09 04:37:50;;;;;;;;;;;;;;;19.05;55.61;99371.75;5111623;28;19912;-79
2023/06/09 04:40:21;;;;;;;;;;;;;;;19.10;55.75;99376.41;5112210;28;19911;-79
2023/06/09 04:42:50;;;;;;;;;;;;;;;19.15;56.71;99378.34;5110896;28;20292;-79
2023/06/09 04:45:17;;;;;;;;;;;;;;;19.24;55.37;99380.41;5112137;28;19934;-79
2023/06/09 04:47:42;;;;;;;;;;;;;;;19.28;55.48;99380.75;5112074;28;19925;-78
2023/06/09 04:50:08;;;;;;;;;;;;;;;19.30;55.64;99379.47;5110978;28;19923;-79
2023/06/09 04:52:33;;;;;;;;;;;;;;;19.30;55.85;99371.44;5113448;28;19912;-78
2023/06/09 04:54:59;;;;;;;;;;;;;;;19.33;56.97;99375.53;5114400;28;19915;-79
2023/06/09 04:57:28;;;;;;;;;;;;;;;19.38;57.20;99364.91;5115477;28;19954;-79
2023/06/09 04:59:53;;;;;;;;;;;;;;;19.47;56.40;99366.16;5115553;28;19919;-78
2023/06/09 05:02:18;;;;;;;;;;;;;;;19.59;56.41;99372.28;5115358;28;19915;-78
2023/06/09 05:04:44;;;;;;;;;;;;;;;19.68;57.74;99375.41;5115424;28;19911;-78
2023/06/09 05:07:09;;;;;;;;;;;;;;;19.77;57.39;99373.13;5115432;28;20300;-79
2023/06/09 05:09:35;;;;;;;;;;;;;;;19.86;56.21;99371.69;5115316;28;19919;-79
2023/06/09 05:12:00;;;;;;;;;;;;;;;19.97;55.95;99381.50;5115079;28;19962;-76
2023/06/09 05:14:25;;;;;;;;;;;;;;;20.06;55.85;99371.19;5115460;28;19998;-78
2023/06/09 05:16:53;;;;;;;;;;;;;;;20.16;55.37;99377.56;5113799;28;20384;-77
2023/06/09 05:19:19;;;;;;;;;;;;;;;20.25;55.14;99380.63;5112702;27;19919;-78
2023/06/09 05:21:46;;;;;;;;;;;;;;;20.26;54.98;99382.25;5109843;27;19922;-78
2023/06/09 05:24:11;;;;;;;;;;;;;;;20.24;55.34;99376.34;5114940;28;19919;-77
2023/06/09 05:26:36;;;;;;;;;;;;;;;20.27;55.25;99387.38;5115111;28;19912;-77
2023/06/09 05:29:02;;;;;;;;;;;;;;;20.33;55.61;99379.41;5117842;27;19920;-78
2023/06/09 05:31:27;;;;;;;;;;;;;;;20.38;54.93;99377.63;5114792;28;20346;-78
2023/06/09 05:33:52;;;;;;;;;;;;;;;20.39;54.94;99375.75;5114908;28;20007;-78
2023/06/09 05:36:18;;;;;;;;;;;;;;;20.42;55.19;99380.66;5113430;28;19924;-78
2023/06/09 05:38:43;;;;;;;;;;;;;;;20.46;55.23;99389.84;5113423;28;19912;-78
2023/06/09 05:41:08;;;;;;;;;;;;;;;20.50;55.27;99378.38;5113173;27;19967;-77
2023/06/09 05:43:33;;;;;;;;;;;;;;;20.54;54.98;99374.13;5115703;27;19911;-78
2023/06/09 05:45:59;;;;;;;;;;;;;;;20.58;54.73;99377.94;5115009;28;19919;-78
2023/06/09 05:48:24;;;;;;;;;;;;;;;20.62;54.36;99381.75;5114858;28;19912;-78
2023/06/09 05:50:49;;;;;;;;;;;;;;;20.66;54.75;99382.06;5113521;28;19962;-78
2023/06/09 05:53:16;;;;;;;;;;;;;;;20.71;54.63;99368.72;5114743;28;19998;-78
2023/06/09 05:55:42;;;;;;;;;;;;;;;20.77;54.06;99373.09;5114051;28;19973;-78
2023/06/09 05:58:07;;;;;;;;;;;;;;;20.81;54.09;99376.94;5101702;28;20335;-78
2023/06/09 06:00:33;;;;;;;;;;;;;;;20.84;53.46;99378.31;5107084;28;19999;-76
2023/06/09 06:03:00;;;;;;;;;;;;;;;20.83;53.53;99376.69;5110250;27;20343;-78
2023/06/09 06:05:25;;;;;;;;;;;;;;;20.89;52.98;99373.81;5096436;27;19969;-78
2023/06/09 06:07:51;;;;;;;;;;;;;;;20.94;53.46;99378.44;5093894;28;19916;-78
2023/06/09 06:10:17;;;;;;;;;;;;;;;21.00;53.05;99390.03;5093721;28;20226;-78
2023/06/09 06:12:42;;;;;;;;;;;;;;;21.05;52.84;99382.06;5099474;27;19923;-78
2023/06/09 06:15:07;;;;;;;;;;;;;;;21.06;53.41;99379.13;5124669;27;19912;-78
2023/06/09 06:17:33;;;;;;;;;;;;;;;21.06;53.30;99379.13;5115197;27;19934;-78
2023/06/09 06:19:58;;;;;;;;;;;;;;;21.12;53.17;99380.00;5114198;27;20404;-78
2023/06/09 06:22:24;;;;;;;;;;;;;;;21.14;53.26;99375.19;5113521;28;19935;-78
2023/06/09 06:24:49;;;;;;;;;;;;;;;21.18;53.15;99379.81;5112394;28;19915;-76
2023/06/09 06:27:14;;;;;;;;;;;;;;;21.22;52.65;99374.75;5113000;28;19921;-77
2023/06/09 06:29:40;;;;;;;;;;;;;;;21.30;52.83;99374.31;5106576;27;20312;-77
2023/06/09 06:32:06;;;;;;;;;;;;;;;21.38;52.47;99375.75;5092780;28;19916;-77
2023/06/09 06:34:31;;;;;;;;;;;;;;;21.43;52.16;99365.88;5093233;28;19918;-77
2023/06/09 06:36:57;;;;;;;;;;;;;;;21.50;51.82;99362.97;5099995;27;19952;-78
2023/06/09 06:39:22;;;;;;;;;;;;;;;21.56;51.63;99367.38;5098692;27;19916;-76
2023/06/09 06:41:47;;;;;;;;;;;;;;;21.62;52.48;99369.03;5095880;27;19938;-79
2023/06/09 06:44:12;;;;;;;;;;;;;;;21.68;51.69;99365.34;5107444;27;20002;-77
2023/06/09 06:46:38;;;;;;;;;;;;;;;21.73;51.93;99361.88;5113265;28;20138;-79
2023/06/09 06:49:03;;;;;;;;;;;;;;;21.79;52.01;99355.47;5111610;27;20030;-78
2023/06/09 06:51:29;;;;;;;;;;;;;;;21.83;51.79;99357.41;5113065;27;19919;-78
2023/06/09 06:53:54;;;;;;;;;;;;;;;21.98;50.28;99362.09;5115448;27;19915;-79
2023/06/09 06:56:21;;;;;;;;;;;;;;;21.91;51.66;99358.00;5116268;27;19920;-78
2023/06/09 06:58:46;;;;;;;;;;;;;;;21.49;51.89;99283.47;5123067;27;19915;-76
2023/06/09 07:01:11;;;;;;;;;;;;;;;22.03;52.02;99354.09;5134814;27;19918;-78
2023/06/09 07:03:40;;;;;;;;;;;;;;;22.12;51.39;99357.13;5135820;27;19937;-78
2023/06/09 07:06:05;;;;;;;;;;;;;;;22.15;51.58;99360.09;5120084;27;19919;-79
2023/06/09 07:08:30;;;;;;;;;;;;;;;22.22;51.12;99357.19;5101543;27;19923;-76
2023/06/09 07:10:55;;;;;;;;;;;;;;;22.30;51.23;99353.25;5115528;27;19947;-76
2023/06/09 07:13:21;;;;;;;;;;;;;;;22.38;51.39;99352.75;5110716;28;19920;-77
2023/06/09 07:15:47;;;;;;;;;;;;;;;22.42;51.00;99356.53;5113098;27;19955;-76
2023/06/09 07:18:12;;;;;;;;;;;;;;;22.48;50.85;99353.63;5117091;27;20361;-76
2023/06/09 07:20:37;;;;;;;;;;;;;;;22.59;50.77;99351.78;5111227;28;19904;-77
2023/06/09 07:23:03;;;;;;;;;;;;;;;22.63;50.21;99347.50;5112521;28;19965;-76
2023/06/09 07:25:28;;;;;;;;;;;;;;;22.68;50.19;99347.53;5116898;27;19911;-77
2023/06/09 07:27:53;;;;;;;;;;;;;;;22.73;50.25;99350.25;5112815;28;19920;-77
2023/06/09 07:30:19;;;;;;;;;;;;;;;22.74;50.15;99343.00;5112216;28;19919;-78
2023/06/09 07:32:44;;;;;;;;;;;;;;;22.75;50.21;99336.53;5097742;27;20313;-78
2023/06/09 07:35:12;;;;;;;;;;;;;;;22.81;49.87;99335.50;5116312;27;19972;-76
2023/06/09 07:37:39;;;;;;;;;;;;;;;22.93;48.96;99333.41;5132365;27;19919;-76
2023/06/09 07:40:05;;;;;;;;;;;;;;;22.94;49.88;99334.22;5131002;27;19915;-78
2023/06/09 07:42:30;;;;;;;;;;;;;;;22.97;49.38;99334.50;5131428;27;20383;-78
2023/06/09 07:44:56;;;;;;;;;;;;;;;23.02;49.76;99336.41;5121766;27;20002;-78
2023/06/09 07:47:21;;;;;;;;;;;;;;;23.11;49.09;99332.97;5114832;27;20381;-78
2023/06/09 07:49:46;;;;;;;;;;;;;;;23.12;48.95;99331.06;5112011;28;19994;-76
2023/06/09 07:52:11;;;;;;;;;;;;;;;23.14;49.19;99340.50;5111920;28;20388;-79
2023/06/09 07:54:37;;;;;;;;;;;;;;;23.19;49.18;99336.22;5130722;27;19918;-78
2023/06/09 07:57:02;;;;;;;;;;;;;;;23.07;49.25;99334.56;5132612;27;19955;-76
2023/06/09 07:59:27;;;;;;;;;;;;;;;23.07;49.37;99333.75;5115514;28;19981;-79
2023/06/09 08:01:53;;;;;;;;;;;;;;;23.14;48.76;99340.50;5111700;28;19912;-78
2023/06/09 08:04:18;;;;;;;;;;;;;;;23.29;48.87;99342.44;5130479;28;19915;-79
2023/06/09 08:06:44;;;;;;;;;;;;;;;23.38;48.68;99332.75;5115066;28;20011;-76
2023/06/09 08:09:10;;;;;;;;;;;;;;;23.53;48.15;99333.84;5110360;28;19912;-77
2023/06/09 08:11:35;;;;;;;;;;;;;;;23.60;48.08;99337.13;5116344;28;20280;-77
2023/06/09 08:14:01;;;;;;;;;;;;;;;23.65;48.05;99329.84;5120012;28;19916;-77
2023/06/09 08:16:26;;;;;;;;;;;;;;;23.74;48.00;99330.94;5113652;28;19927;-77
2023/06/09 08:18:51;;;;;;;;;;;;;;;23.84;47.59;99340.13;5106125;28;20359;-76
2023/06/09 08:21:17;;;;;;;;;;;;;;;23.92;47.55;99340.38;5101987;28;19980;-77
2023/06/09 08:23:43;;;;;;;;;;;;;;;24.01;47.41;99336.06;5100196;28;20285;-77
2023/06/09 08:26:09;;;;;;;;;;;;;;;24.07;47.20;99337.69;5092765;28;20030;-76
2023/06/09 08:28:34;;;;;;;;;;;;;;;24.11;46.91;99343.34;5099439;27;19966;-76
2023/06/09 08:31:00;;;;;;;;;;;;;;;24.26;46.88;99332.53;5103954;27;19959;-77
2023/06/09 08:33:26;;;;;;;;;;;;;;;24.37;46.63;99334.16;5095322;28;20429;-78
2023/06/09 08:35:51;;;;;;;;;;;;;;;24.45;46.90;99327.38;5096727;27;20004;-76
2023/06/09 08:38:16;;;;;;;;;;;;;;;24.47;46.98;99336.03;5095338;28;20312;-78
2023/06/09 08:40:42;;;;;;;;;;;;;;;24.52;46.55;99336.00;5102798;27;19966;-78
2023/06/09 08:43:07;;;;;;;;;;;;;;;24.70;46.57;99340.03;5115180;28;19969;-77
2023/06/09 08:45:33;;;;;;;;;;;;;;;24.80;46.20;99333.78;5115298;28;20403;-77
2023/06/09 08:47:59;;;;;;;;;;;;;;;24.86;45.68;99332.69;5111721;28;19970;-77
2023/06/09 08:50:27;;;;;;;;;;;;;;;24.96;45.49;99329.94;5115548;27;20319;-78
2023/06/09 08:52:53;;;;;;;;;;;;;;;25.06;45.41;99327.19;5113599;28;19919;-78
2023/06/09 08:55:19;;;;;;;;;;;;;;;25.11;45.43;99323.66;5115097;28;19916;-79
2023/06/09 08:57:46;;;;;;;;;;;;;;;25.23;45.17;99327.66;5128581;27;19919;-78
2023/06/09 09:00:12;;;;;;;;;;;;;;;25.32;44.95;99320.59;5129925;27;19924;-78
2023/06/09 09:02:37;;;;;;;;;;;;;;;25.38;44.82;99310.56;5115363;28;19912;-77
2023/06/09 09:05:02;;;;;;;;;;;;;;;25.33;44.82;99313.28;5115322;27;19916;-77
2023/06/09 09:07:28;;;;;;;;;;;;;;;25.50;44.30;99311.00;5112030;28;19919;-78
2023/06/09 09:09:54;;;;;;;;;;;;;;;25.68;43.12;99306.03;5113545;28;19995;-79
2023/06/09 09:12:19;;;;;;;;;;;;;;;25.86;43.24;99310.75;5115998;27;20019;-78
2023/06/09 09:14:45;;;;;;;;;;;;;;;26.12;42.75;99316.75;5100635;27;20404;-77
2023/06/09 09:17:11;;;;;;;;;;;;;;;26.26;40.82;99315.81;5122525;27;19919;-78
2023/06/09 09:19:36;;;;;;;;;;;;;;;26.45;41.62;99310.50;5120200;27;19920;-77
2023/06/09 09:22:08;;;;;;;;;;;;;;;26.67;39.43;99309.16;5114946;28;19918;-77
2023/06/09 09:24:35;;;;;;;;;;;;;;;26.73;41.18;99305.28;5117384;27;19915;-77
2023/06/09 09:27:01;;;;;;;;;;;;;;;26.88;40.39;99295.09;5117312;27;19968;-77
2023/06/09 09:29:29;;;;;;;;;;;;;;;26.85;40.22;99287.56;5113484;28;19920;-77
2023/06/09 09:31:58;;;;;;;;;;;;;;;27.01;39.90;99287.38;5114167;28;19961;-78
2023/06/09 09:34:30;;;;;;;;;;;;;;;27.26;40.33;99289.72;5114420;28;20373;-77
2023/06/09 09:36:55;;;;;;;;;;;;;;;27.56;39.18;99288.47;5114576;28;19915;-77
2023/06/09 09:39:21;;;;;;;;;;;;;;;27.82;37.73;99286.97;5113481;28;19912;-76
2023/06/09 09:42:03;;;;;;;;;;;;;;;27.85;36.85;99283.66;5112630;28;20357;-78
2023/06/09 09:44:47;;;;;;;;;;;;;;;28.05;39.28;99287.09;5119780;27;19915;-77
2023/06/09 09:47:15;;;;;;;;;;;;;;;28.15;37.78;99281.50;5124810;27;19923;-78
2023/06/09 09:49:51;;;;;;;;;;;;;;;28.38;37.55;99282.47;5115246;27;19995;-76
2023/06/09 09:52:29;;;;;;;;;;;;;;;28.61;38.08;99269.78;5112817;27;20392;-77
2023/06/09 09:54:56;;;;;;;;;;;;;;;28.69;37.54;99279.94;5092448;28;20377;-77
2023/06/09 09:57:27;;;;;;;;;;;;;;;28.76;37.26;99264.84;5093548;28;19998;-76
2023/06/09 09:59:52;;;;;;;;;;;;;;;28.88;36.70;99267.06;5093876;28;19976;-77
2023/06/09 10:02:21;;;;;;;;;;;;;;;29.13;34.68;99271.16;5092118;28;19912;-76
2023/06/09 10:04:47;;;;;;;;;;;;;;;29.25;35.40;99265.97;5092039;28;19955;-78
2023/06/09 10:07:14;;;;;;;;;;;;;;;29.42;36.46;99265.28;5093600;28;19912;-75
2023/06/09 10:09:39;;;;;;;;;;;;;;;29.57;35.55;99262.22;5092313;28;19912;-77
2023/06/09 10:12:05;;;;;;;;;;;;;;;29.74;34.29;99258.84;5103952;27;20010;-77
2023/06/09 10:14:31;;;;;;;;;;;;;;;29.78;35.75;99250.84;5113280;27;20380;-77
2023/06/09 10:16:57;;;;;;;;;;;;;;;29.91;34.46;99252.69;5093289;28;19916;-77
2023/06/09 10:19:23;;;;;;;;;;;;;;;30.09;35.44;99248.97;5091766;28;20000;-77
2023/06/09 10:21:49;;;;;;;;;;;;;;;30.19;34.40;99250.59;5093074;28;19912;-76
2023/06/09 10:24:16;;;;;;;;;;;;;;;30.36;31.99;99248.72;5092948;27;19918;-79
2023/06/09 10:26:41;;;;;;;;;;;;;;;30.52;34.04;99245.59;5114857;27;20009;-78
2023/06/09 10:29:10;;;;;;;;;;;;;;;30.59;34.37;99249.50;5133657;27;20452;-76
2023/06/09 10:31:40;;;;;;;;;;;;;;;30.61;32.10;99255.44;5134288;27;19915;-77
2023/06/09 10:34:07;;;;;;;;;;;;;;;30.56;32.75;99247.38;5134157;27;19911;-74
2023/06/09 10:36:38;;;;;;;;;;;;;;;30.82;32.80;99243.91;5137315;27;19938;-77
2023/06/09 10:39:17;;;;;;;;;;;;;;;30.98;32.46;99239.59;5135750;27;19911;-77
2023/06/09 10:41:46;;;;;;;;;;;;;;;31.27;33.72;99244.47;5120585;27;19916;-77
2023/06/09 10:44:24;;;;;;;;;;;;;;;31.39;31.81;99250.06;5110418;27;19922;-78
2023/06/09 10:46:50;;;;;;;;;;;;;;;31.47;29.63;99243.00;5091844;28;19951;-77
2023/06/09 10:49:40;;;;;;;;;;;;;;;31.38;32.60;99244.94;5092528;28;19912;-77
2023/06/09 10:52:28;;;;;;;;;;;;;;;31.64;32.21;99239.44;5092590;28;19912;-77
2023/06/09 10:55:13;;;;;;;;;;;;;;;31.73;30.86;99238.31;5090942;28;19958;-77
2023/06/09 10:57:39;;;;;;;;;;;;;;;31.82;30.48;99230.91;5091051;28;19916;-77
2023/06/09 11:00:11;;;;;;;;;;;;;;;32.00;30.53;99226.19;5092285;28;19912;-78
2023/06/09 11:02:37;;;;;;;;;;;;;;;32.10;31.82;99228.56;5092567;28;19920;-77
2023/06/09 11:05:04;;;;;;;;;;;;;;;31.93;30.63;99228.63;5092551;28;19998;-78
2023/06/09 11:07:32;;;;;;;;;;;;;;;31.94;30.88;99230.22;5092259;28;19920;-78
2023/06/09 11:09:58;;;;;;;;;;;;;;;32.14;28.88;99221.31;5090462;28;20009;-76
2023/06/09 11:12:38;;;;;;;;;;;;;;;32.22;28.49;99208.75;5092342;28;19916;-77
2023/06/09 11:15:04;;;;;;;;;;;;;;;32.32;28.74;99215.81;5092445;28;19998;-76
2023/06/09 11:17:34;;;;;;;;;;;;;;;32.48;29.42;99216.81;5091984;28;19926;-77
2023/06/09 11:20:20;;;;;;;;;;;;;;;32.51;29.61;99202.50;5092350;28;20392;-75
2023/06/09 11:22:47;;;;;;;;;;;;;;;32.64;30.79;99203.38;5092013;28;19955;-78
2023/06/09 11:25:18;;;;;;;;;;;;;;;32.63;30.25;99204.50;5098069;27;20402;-77
2023/06/09 11:27:45;;;;;;;;;;;;;;;32.75;30.18;99194.47;5120243;27;19920;-78
2023/06/09 11:30:17;;;;;;;;;;;;;;;32.74;28.91;99189.34;5124849;27;19923;-77
2023/06/09 11:32:42;;;;;;;;;;;;;;;32.76;30.02;99189.81;5111543;27;19959;-79
2023/06/09 11:35:08;;;;;;;;;;;;;;;32.71;30.01;99198.22;5113564;27;19954;-79
2023/06/09 11:37:33;;;;;;;;;;;;;;;32.81;28.22;99186.91;5107188;28;19920;-76
2023/06/09 11:39:59;;;;;;;;;;;;;;;33.03;26.32;99186.56;5119514;27;20376;-77
2023/06/09 11:42:25;;;;;;;;;;;;;;;33.06;28.84;99176.88;5112582;27;20424;-77
2023/06/09 11:44:51;;;;;;;;;;;;;;;33.12;28.88;99179.06;5109102;27;19955;-76
2023/06/09 11:47:23;;;;;;;;;;;;;;;33.02;27.38;99176.75;5113777;27;20399;-77
2023/06/09 11:49:57;;;;;;;;;;;;;;;33.08;27.75;99175.41;5105786;27;20366;-76
2023/06/09 11:52:23;;;;;;;;;;;;;;;33.30;26.79;99167.97;5101244;27;20396;-78
2023/06/09 11:57:32;;;;;;;;;;;;;;;33.54;27.45;99162.59;5105497;28;19927;-77
2023/06/09 11:59:58;;;;;;;;;;;;;;;33.41;25.27;99161.72;5105078;28;19920;-76
2023/06/09 12:02:24;;;;;;;;;;;;;;;33.12;27.15;99151.72;5100179;27;20306;-77
2023/06/09 12:04:50;;;;;;;;;;;;;;;33.28;26.80;99151.88;5098794;28;19919;-77
2023/06/09 12:07:18;;;;;;;;;;;;;;;33.29;21.86;99153.47;5093656;28;20399;-78
2023/06/09 12:09:43;;;;;;;;;;;;;;;33.42;24.35;99157.06;5092376;28;19919;-75
2023/06/09 12:12:09;;;;;;;;;;;;;;;33.60;23.31;99152.22;5108672;28;19920;-77
2023/06/09 12:14:35;;;;;;;;;;;;;;;33.81;25.37;99155.66;5099799;28;19922;-77
2023/06/09 12:17:00;;;;;;;;;;;;;;;33.84;25.14;99159.69;5100415;28;20014;-77
2023/06/09 12:19:25;;;;;;;;;;;;;;;33.82;25.47;99157.28;5103983;28;20007;-77
2023/06/09 12:21:51;;;;;;;;;;;;;;;33.87;23.84;99145.31;5098038;28;19923;-76
2023/06/09 12:24:16;;;;;;;;;;;;;;;34.06;24.97;99151.81;5091443;28;20449;-77
2023/06/09 12:26:44;;;;;;;;;;;;;;;34.18;23.47;99147.47;5091478;28;19912;-78
2023/06/09 12:29:09;;;;;;;;;;;;;;;34.25;24.35;99144.97;5091545;28;20343;-78
2023/06/09 12:31:42;;;;;;;;;;;;;;;34.37;25.44;99150.47;5115827;28;19923;-76
2023/06/09 12:34:07;;;;;;;;;;;;;;;34.34;25.32;99138.25;5091752;28;20003;-76
2023/06/09 12:36:40;;;;;;;;;;;;;;;34.37;25.06;99137.56;5100514;28;20002;-78
2023/06/09 12:39:15;;;;;;;;;;;;;;;34.52;25.05;99136.03;5111769;28;19916;-77
2023/06/09 12:41:41;;;;;;;;;;;;;;;34.69;23.51;99129.47;5093238;28;19916;-76
2023/06/09 12:44:06;;;;;;;;;;;;;;;34.53;25.15;99129.41;5091885;28;19920;-77
2023/06/09 12:46:35;;;;;;;;;;;;;;;34.54;24.79;99130.19;5108542;28;20326;-77
2023/06/09 12:49:02;;;;;;;;;;;;;;;34.53;25.65;99121.19;5094604;28;19912;-77